Time;durP1;ratioP1;P1;durP2;ratioP2;P2;SDS_P1;SDS_P2;PMS_P1;PMS_P2;Temp;Humidity;BMP_temperature;BMP_pressure;BME280_temperature;BME280_humidity;BME280_pressure;Samples;Min_cycle;Max_cycle;Signal;HPM_P1;HPM_P2
2021/07/08 07:27:31;;;;;;;;;;;;;;;;;;5588185;22;19986;-53
2021/07/08 07:30:00;;;;;;;;;;;;;;;;;;5047830;28;19982;-54
2021/07/08 07:32:26;;;;;;;;;;;;;;;;;;5050841;28;19947;-55
2021/07/08 07:34:52;;;;;;;;;;;;;;;;;;5045863;28;20360;-52
2021/07/08 07:37:18;;;;;;;;;;;;;;;;;;5051119;28;19912;-52
2021/07/08 07:39:44;;;;;;;;;;;;;;;;;;5049961;28;20007;-52
2021/07/08 07:42:10;;;;;;;;;;;;;;;;;;5050361;28;19909;-52
2021/07/08 07:44:36;;;;;;;;;;;;;;;;;;5050981;28;19920;-58
2021/07/08 07:47:01;;;;;;;;;;;;;;;;;;5050894;28;19924;-54
2021/07/08 07:49:27;;;;;;;;;;;;;;;;;;5050216;28;20272;-53
2021/07/08 07:51:53;;;;;;;;;;;;;;;;;;5049748;28;19974;-51
2021/07/08 07:54:19;;;;;;;;;;;;;;;;;;5050644;28;19908;-50
2021/07/08 07:56:45;;;;;;;;;;;;;;;;;;5051205;28;19905;-52
2021/07/08 07:59:11;;;;;;;;;;;;;;;;;;5032759;28;19911;-48
2021/07/08 08:01:40;;;;;;;;;;;;;;;;;;5032344;28;19908;-48
2021/07/08 08:04:06;;;;;;;;;;;;;;;;;;5053754;28;19908;-52
2021/07/08 08:09:17;;;;;;;;;;;;;;;;;;5062599;28;19932;-55
2021/07/08 08:11:43;;;;;;;;;;;;;;;;;;5054149;28;19917;-52
2021/07/08 08:14:09;;;;;;;;;;;;;;;;;;5051647;28;19952;-51
2021/07/08 08:16:36;;;;;;;;;;;;;;;;;;5063773;28;19909;-54
2021/07/08 08:19:02;;;;;;;;;;;;;;;;;;5059613;28;19920;-52
2021/07/08 08:21:28;;;;;;;;;;;;;;;;;;5039253;28;19916;-54
2021/07/08 08:23:54;;;;;;;;;;;;;;;;;;5053882;28;20004;-54
2021/07/08 08:26:19;;;;;;;;;;;;;;;;;;5051190;28;19947;-54
2021/07/08 08:28:45;;;;;;;;;;;;;;;;;;5045715;28;20934;-55
2021/07/08 08:31:11;;;;;;;;;;;;;;;;;;5071520;28;19908;-51
2021/07/08 08:33:37;;;;;;;;;;;;;;;;;;5069789;28;20333;-48
2021/07/08 08:36:03;;;;;;;;;;;;;;;;;;5069032;28;20064;-50
2021/07/08 08:38:29;;;;;;;;;;;;;;;;;;5068908;28;19938;-50
2021/07/08 08:40:55;;;;;;;;;;;;;;;;;;5069769;28;19909;-53
2021/07/08 08:43:21;;;;;;;;;;;;;;;;;;5069549;28;19909;-52
2021/07/08 08:45:48;;;;;;;;;;;;;;;;;;5068778;28;20359;-53
2021/07/08 08:48:14;;;;;;;;;;;;;;;;;;5068673;28;19924;-54
2021/07/08 08:50:39;;;;;;;;;;;;;;;;;;5050940;28;20402;-52
2021/07/08 08:53:05;;;;;;;;;;;;;;;;;;5069690;28;19955;-52
2021/07/08 08:55:35;;;;;;;;;;;;;;;;;;5071347;28;19912;-54
2021/07/08 08:58:01;;;;;;;;;;;;;;;;;;5050843;28;20007;-50
2021/07/08 09:00:28;;;;;;;;;;;;;;;;;;5069847;28;19943;-51
2021/07/08 09:02:54;;;;;;;;;;;;;;;;;;5069723;28;19916;-58
2021/07/08 09:05:20;;;;;;;;;;;;;;;;;;5069194;28;19931;-57
2021/07/08 09:07:46;;;;;;;;;;;;;;;;;;5068989;28;19955;-54
2021/07/08 09:10:12;;;;;;;;;;;;;;;;;;5069843;28;19988;-54
2021/07/08 09:12:38;;;;;;;;;;;;;;;;;;5049358;28;20291;-55
2021/07/08 09:15:04;;;;;;;;;;;;;;;;;;5068896;28;19913;-50
2021/07/08 09:17:30;;;;;;;;;;;;;;;;;;5069113;28;20368;-53
2021/07/08 09:19:56;;;;;;;;;;;;;;;;;;5068381;28;20315;-50
2021/07/08 09:22:22;;;;;;;;;;;;;;;;;;5069593;28;19984;-50
2021/07/08 09:24:48;;;;;;;;;;;;;;;;;;5075259;28;19983;-50
2021/07/08 09:27:14;;;;;;;;;;;;;;;;;;5068142;28;20001;-55
2021/07/08 09:29:40;;;;;;;;;;;;;;;;;;5069151;28;19943;-54
2021/07/08 09:32:06;;;;;;;;;;;;;;;;;;5069490;28;19977;-54
2021/07/08 09:34:32;;;;;;;;;;;;;;;;;;5044810;28;20284;-51
2021/07/08 09:36:58;;;;;;;;;;;;;;;;;;5060473;28;20018;-50
2021/07/08 09:39:24;;;;;;;;;;;;;;;;;;5068803;28;19904;-53
2021/07/08 09:41:50;;;;;;;;;;;;;;;;;;5068720;28;19962;-53
2021/07/08 09:44:16;;;;;;;;;;;;;;;;;;5067644;28;19973;-54
2021/07/08 09:46:43;;;;;;;;;;;;;;;;;;5068539;28;20342;-54
2021/07/08 09:49:11;;;;;;;;;;;;;;;;;;5069156;28;19954;-56
2021/07/08 09:51:37;;;;;;;;;;;;;;;;;;5068984;28;19912;-51
2021/07/08 09:54:25;;;;;;;;;;;;;;;;;;5068511;28;19905;-53
2021/07/08 09:56:51;;;;;;;;;;;;;;;;;;5068726;28;20281;-53
2021/07/08 09:59:17;;;;;;;;;;;;;;;;;;5067938;28;20003;-51
2021/07/08 10:01:43;;;;;;;;;;;;;;;;;;5068672;28;19999;-61
2021/07/08 10:04:09;;;;;;;;;;;;;;;;;;5050520;28;20374;-53
2021/07/08 10:06:35;;;;;;;;;;;;;;;;;;5067960;28;20003;-52
2021/07/08 10:09:01;;;;;;;;;;;;;;;;;;5067562;28;19912;-53
2021/07/08 10:11:27;;;;;;;;;;;;;;;;;;5068017;28;20024;-55
2021/07/08 10:13:53;;;;;;;;;;;;;;;;;;5066725;28;20514;-53
2021/07/08 10:16:19;;;;;;;;;;;;;;;;;;5067201;28;19904;-52
2021/07/08 10:18:45;;;;;;;;;;;;;;;;;;5067499;28;19954;-51
2021/07/08 10:21:11;;;;;;;;;;;;;;;;;;5067742;28;20025;-56
2021/07/08 10:23:37;;;;;;;;;;;;;;;;;;5066389;28;19944;-52
2021/07/08 10:26:03;;;;;;;;;;;;;;;;;;5064330;28;20245;-53
2021/07/08 10:28:30;;;;;;;;;;;;;;;;;;5051812;28;19921;-54
2021/07/08 10:30:56;;;;;;;;;;;;;;;;;;5048198;28;20364;-56
2021/07/08 10:33:22;;;;;;;;;;;;;;;;;;5048802;28;20022;-56
2021/07/08 10:35:48;;;;;;;;;;;;;;;;;;5046094;28;20283;-51
2021/07/08 10:38:14;;;;;;;;;;;;;;;;;;5047518;28;20209;-53
2021/07/08 10:40:40;;;;;;;;;;;;;;;;;;5047944;28;19905;-51
2021/07/08 10:43:06;;;;;;;;;;;;;;;;;;5032422;28;19989;-52
2021/07/08 10:45:32;;;;;;;;;;;;;;;;;;5051360;28;20321;-55
2021/07/08 10:47:58;;;;;;;;;;;;;;;;;;5051618;28;20314;-54
2021/07/08 10:50:24;;;;;;;;;;;;;;;;;;5051268;28;20004;-54
2021/07/08 10:52:50;;;;;;;;;;;;;;;;;;5050703;28;19908;-54
2021/07/08 10:55:16;;;;;;;;;;;;;;;;;;5051950;28;19952;-52
2021/07/08 10:57:42;;;;;;;;;;;;;;;;;;5033144;28;20347;-51
2021/07/08 11:00:08;;;;;;;;;;;;;;;;;;5051105;28;19904;-55
2021/07/08 11:02:34;;;;;;;;;;;;;;;;;;5051674;28;19914;-53
2021/07/08 11:05:00;;;;;;;;;;;;;;;;;;5051007;28;20376;-53
2021/07/08 11:07:27;;;;;;;;;;;;;;;;;;5032568;28;20001;-55
2021/07/08 11:09:53;;;;;;;;;;;;;;;;;;5049671;28;20433;-54
2021/07/08 11:12:19;;;;;;;;;;;;;;;;;;5049913;28;19940;-53
2021/07/08 11:14:44;;;;;;;;;;;;;;;;;;5050652;28;20327;-52
2021/07/08 11:17:11;;;;;;;;;;;;;;;;;;5051224;28;20308;-54
2021/07/08 11:19:38;;;;;;;;;;;;;;;;;;5049601;28;20321;-54
2021/07/08 11:22:14;;;;;;;;;;;;;;;;;;5050499;28;20450;-52
2021/07/08 11:24:41;;;;;;;;;;;;;;;;;;5048352;28;20029;-53
2021/07/08 11:27:07;;;;;;;;;;;;;;;;;;5053430;28;20582;-53
2021/07/08 11:29:33;;;;;;;;;;;;;;;;;;5061106;28;19974;-53
2021/07/08 11:31:59;;;;;;;;;;;;;;;;;;5050516;28;19915;-53
2021/07/08 11:34:28;;;;;;;;;;;;;;;;;;5043529;28;20403;-54
2021/07/08 11:36:55;;;;;;;;;;;;;;;;;;5048810;28;20023;-54
2021/07/08 11:39:21;;;;;;;;;;;;;;;;;;5049897;28;19916;-54
2021/07/08 11:41:47;;;;;;;;;;;;;;;;;;5056470;28;20338;-54
2021/07/08 11:44:14;;;;;;;;;;;;;;;;;;5050302;28;19935;-51
2021/07/08 11:46:40;;;;;;;;;;;;;;;;;;5050763;28;19904;-52
2021/07/08 11:49:06;;;;;;;;;;;;;;;;;;5047029;28;19927;-52
2021/07/08 11:51:32;;;;;;;;;;;;;;;;;;5051934;28;19912;-51
2021/07/08 11:53:58;;;;;;;;;;;;;;;;;;5057817;28;20573;-48
2021/07/08 11:56:24;;;;;;;;;;;;;;;;;;5054251;28;19908;-53
2021/07/08 11:58:50;;;;;;;;;;;;;;;;;;5051483;28;19908;-50
2021/07/08 12:01:18;;;;;;;;;;;;;;;;;;5055649;28;20458;-55
2021/07/08 12:03:45;;;;;;;;;;;;;;;;;;5050823;28;19913;-56
2021/07/08 12:06:11;;;;;;;;;;;;;;;;;;5050185;28;19912;-55
2021/07/08 12:08:38;;;;;;;;;;;;;;;;;;5051179;28;19957;-53
2021/07/08 12:11:11;;;;;;;;;;;;;;;;;;5051169;28;19904;-50
2021/07/08 12:13:37;;;;;;;;;;;;;;;;;;5047094;28;19963;-49
2021/07/08 12:16:03;;;;;;;;;;;;;;;;;;5044757;28;20369;-55
2021/07/08 12:18:29;;;;;;;;;;;;;;;;;;5049160;28;19984;-49
2021/07/08 12:20:55;;;;;;;;;;;;;;;;;;5049767;28;20313;-54
2021/07/08 12:23:21;;;;;;;;;;;;;;;;;;5049207;28;20363;-52
2021/07/08 12:25:47;;;;;;;;;;;;;;;;;;5049529;28;19901;-52
2021/07/08 12:28:13;;;;;;;;;;;;;;;;;;5037452;28;19959;-53
2021/07/08 12:30:39;;;;;;;;;;;;;;;;;;5049383;28;19909;-57
2021/07/08 12:33:05;;;;;;;;;;;;;;;;;;5049720;28;19904;-53
2021/07/08 12:35:31;;;;;;;;;;;;;;;;;;5040025;28;20023;-53
2021/07/08 12:37:57;;;;;;;;;;;;;;;;;;5050139;28;19905;-53
2021/07/08 12:40:23;;;;;;;;;;;;;;;;;;5032521;28;20483;-54
2021/07/08 12:42:49;;;;;;;;;;;;;;;;;;5050937;28;19911;-55
2021/07/08 12:45:15;;;;;;;;;;;;;;;;;;5050745;28;19951;-54
2021/07/08 12:47:43;;;;;;;;;;;;;;;;;;5050905;28;19960;-54
2021/07/08 12:50:09;;;;;;;;;;;;;;;;;;5050215;28;19999;-54
2021/07/08 12:52:38;;;;;;;;;;;;;;;;;;5045057;28;20362;-57
2021/07/08 12:55:04;;;;;;;;;;;;;;;;;;5031619;28;19904;-57
2021/07/08 12:57:30;;;;;;;;;;;;;;;;;;5047903;28;19936;-56
2021/07/08 12:59:56;;;;;;;;;;;;;;;;;;5045652;28;19927;-54
2021/07/08 13:02:22;;;;;;;;;;;;;;;;;;5045501;28;19912;-50
2021/07/08 13:04:48;;;;;;;;;;;;;;;;;;5035136;28;19905;-57
2021/07/08 13:07:14;;;;;;;;;;;;;;;;;;5049650;28;20000;-55
2021/07/08 13:09:40;;;;;;;;;;;;;;;;;;5050269;28;19905;-56
2021/07/08 13:12:05;;;;;;;;;;;;;;;;;;5049524;28;19955;-58
2021/07/08 13:14:32;;;;;;;;;;;;;;;;;;5049971;28;20264;-57
2021/07/08 13:16:58;;;;;;;;;;;;;;;;;;5051103;28;19908;-56
2021/07/08 13:19:24;;;;;;;;;;;;;;;;;;5049715;28;19913;-51
2021/07/08 13:21:50;;;;;;;;;;;;;;;;;;5048803;28;19958;-50
2021/07/08 13:24:16;;;;;;;;;;;;;;;;;;5049191;28;19924;-52
2021/07/08 13:26:42;;;;;;;;;;;;;;;;;;5049998;28;19967;-49
2021/07/08 13:29:08;;;;;;;;;;;;;;;;;;5039407;28;20369;-53
2021/07/08 13:31:35;;;;;;;;;;;;;;;;;;5049284;28;19909;-50
2021/07/08 13:34:01;;;;;;;;;;;;;;;;;;5048183;28;19905;-54
2021/07/08 13:36:29;;;;;;;;;;;;;;;;;;5049205;28;19999;-54
2021/07/08 13:38:55;;;;;;;;;;;;;;;;;;5050399;28;20046;-49
2021/07/08 13:41:21;;;;;;;;;;;;;;;;;;5049285;28;19904;-55
2021/07/08 13:43:47;;;;;;;;;;;;;;;;;;5049644;28;19982;-54
2021/07/08 13:46:13;;;;;;;;;;;;;;;;;;5055819;28;20373;-48
2021/07/08 13:48:39;;;;;;;;;;;;;;;;;;5067977;28;19956;-56
2021/07/08 13:51:05;;;;;;;;;;;;;;;;;;5050273;28;19904;-53
2021/07/08 13:53:31;;;;;;;;;;;;;;;;;;5048729;28;19901;-54
2021/07/08 13:55:57;;;;;;;;;;;;;;;;;;5050634;28;20275;-57
2021/07/08 13:58:23;;;;;;;;;;;;;;;;;;5053353;28;19920;-54
2021/07/08 14:00:52;;;;;;;;;;;;;;;;;;5048678;28;20023;-50
2021/07/08 14:03:18;;;;;;;;;;;;;;;;;;5050353;28;19905;-48
2021/07/08 14:05:44;;;;;;;;;;;;;;;;;;5049758;28;19905;-48
2021/07/08 14:08:10;;;;;;;;;;;;;;;;;;5049294;28;20313;-51
2021/07/08 14:10:36;;;;;;;;;;;;;;;;;;5049663;28;19983;-50
2021/07/08 14:13:03;;;;;;;;;;;;;;;;;;5033490;28;19909;-49
2021/07/08 14:15:29;;;;;;;;;;;;;;;;;;5055283;28;19912;-52
2021/07/08 14:17:56;;;;;;;;;;;;;;;;;;5063649;28;20337;-48
2021/07/08 14:20:22;;;;;;;;;;;;;;;;;;5054235;28;19908;-51
2021/07/08 14:22:48;;;;;;;;;;;;;;;;;;5059801;28;19955;-53
2021/07/08 14:25:14;;;;;;;;;;;;;;;;;;5065751;28;19905;-52
2021/07/08 14:27:40;;;;;;;;;;;;;;;;;;5052607;28;19975;-51
2021/07/08 14:30:06;;;;;;;;;;;;;;;;;;5052662;28;20242;-53
2021/07/08 14:32:32;;;;;;;;;;;;;;;;;;5052332;28;19916;-49
2021/07/08 14:34:58;;;;;;;;;;;;;;;;;;5050604;28;19969;-50
2021/07/08 14:37:24;;;;;;;;;;;;;;;;;;5052683;28;20018;-47
2021/07/08 14:39:50;;;;;;;;;;;;;;;;;;5033753;28;20357;-49
2021/07/08 14:42:16;;;;;;;;;;;;;;;;;;5052075;28;20237;-50
2021/07/08 14:44:47;;;;;;;;;;;;;;;;;;5052391;28;20008;-54
2021/07/08 14:47:13;;;;;;;;;;;;;;;;;;5051784;28;19988;-49
2021/07/08 14:49:39;;;;;;;;;;;;;;;;;;5051049;28;20010;-57
2021/07/08 14:52:05;;;;;;;;;;;;;;;;;;5034427;28;20222;-50
2021/07/08 14:54:31;;;;;;;;;;;;;;;;;;5034766;28;19912;-59
2021/07/08 14:56:57;;;;;;;;;;;;;;;;;;5050868;28;19908;-58
2021/07/08 14:59:25;;;;;;;;;;;;;;;;;;5052349;28;20282;-52
2021/07/08 15:01:51;;;;;;;;;;;;;;;;;;5050878;28;20337;-56
2021/07/08 15:04:18;;;;;;;;;;;;;;;;;;5048249;28;19953;-55
2021/07/08 15:06:44;;;;;;;;;;;;;;;;;;5043812;28;20398;-58
2021/07/08 15:09:11;;;;;;;;;;;;;;;;;;5042192;28;20023;-55
2021/07/08 15:11:37;;;;;;;;;;;;;;;;;;5059429;28;19993;-59
2021/07/08 15:14:02;;;;;;;;;;;;;;;;;;5034780;28;20079;-54
2021/07/08 15:16:28;;;;;;;;;;;;;;;;;;5034296;28;19966;-53
2021/07/08 15:18:55;;;;;;;;;;;;;;;;;;5046606;28;19952;-58
2021/07/08 15:21:21;;;;;;;;;;;;;;;;;;5044170;28;19928;-56
2021/07/08 15:23:47;;;;;;;;;;;;;;;;;;5049224;28;19957;-48
2021/07/08 15:26:13;;;;;;;;;;;;;;;;;;5049237;28;19915;-52
2021/07/08 15:28:39;;;;;;;;;;;;;;;;;;5048128;28;19992;-53
2021/07/08 15:31:05;;;;;;;;;;;;;;;;;;5070831;28;19980;-52
2021/07/08 15:33:31;;;;;;;;;;;;;;;;;;5068810;28;19984;-57
2021/07/08 15:35:57;;;;;;;;;;;;;;;;;;5066464;28;20390;-54
2021/07/08 15:38:24;;;;;;;;;;;;;;;;;;5071065;28;19940;-52
2021/07/08 15:40:50;;;;;;;;;;;;;;;;;;5071223;28;20007;-54
2021/07/08 15:43:16;;;;;;;;;;;;;;;;;;5070838;28;19916;-50
2021/07/08 15:45:42;;;;;;;;;;;;;;;;;;5053114;28;19927;-50
2021/07/08 15:48:08;;;;;;;;;;;;;;;;;;5070413;28;19912;-57
2021/07/08 15:50:34;;;;;;;;;;;;;;;;;;5069753;28;19916;-58
2021/07/08 15:53:00;;;;;;;;;;;;;;;;;;5070205;28;19955;-57
2021/07/08 15:55:26;;;;;;;;;;;;;;;;;;5070985;28;20372;-57
2021/07/08 15:57:52;;;;;;;;;;;;;;;;;;5070911;28;19904;-56
2021/07/08 16:00:18;;;;;;;;;;;;;;;;;;5070566;28;19911;-56
2021/07/08 16:02:44;;;;;;;;;;;;;;;;;;5062331;28;19928;-50
2021/07/08 16:05:10;;;;;;;;;;;;;;;;;;5061404;28;19949;-51
2021/07/08 16:07:36;;;;;;;;;;;;;;;;;;5068892;28;20288;-48
2021/07/08 16:10:03;;;;;;;;;;;;;;;;;;5069196;28;19915;-48
2021/07/08 16:12:29;;;;;;;;;;;;;;;;;;5070320;28;20002;-49
2021/07/08 16:14:55;;;;;;;;;;;;;;;;;;5069632;28;20079;-53
2021/07/08 16:17:24;;;;;;;;;;;;;;;;;;5070315;28;19909;-57
2021/07/08 16:19:50;;;;;;;;;;;;;;;;;;5070018;28;19963;-56
2021/07/08 16:22:16;;;;;;;;;;;;;;;;;;5069860;28;19950;-57
2021/07/08 16:24:42;;;;;;;;;;;;;;;;;;5069529;28;19908;-55
2021/07/08 16:27:08;;;;;;;;;;;;;;;;;;5047775;28;20368;-58
2021/07/08 16:29:34;;;;;;;;;;;;;;;;;;5050206;28;19932;-55
2021/07/08 16:32:03;;;;;;;;;;;;;;;;;;5049569;28;19905;-57
2021/07/08 16:34:29;;;;;;;;;;;;;;;;;;5040267;28;19909;-55
2021/07/08 16:36:54;;;;;;;;;;;;;;;;;;5046816;28;20343;-55
2021/07/08 16:39:24;;;;;;;;;;;;;;;;;;5048819;28;19932;-55
2021/07/08 16:41:50;;;;;;;;;;;;;;;;;;5048694;28;19909;-55
2021/07/08 16:44:16;;;;;;;;;;;;;;;;;;5050116;28;19930;-56
2021/07/08 16:46:42;;;;;;;;;;;;;;;;;;5047596;28;19923;-56
2021/07/08 16:49:08;;;;;;;;;;;;;;;;;;5049388;28;19955;-52
2021/07/08 16:51:36;;;;;;;;;;;;;;;;;;5049782;28;19913;-55
2021/07/08 16:54:02;;;;;;;;;;;;;;;;;;5048682;28;19904;-55
2021/07/08 16:56:31;;;;;;;;;;;;;;;;;;5049455;28;19923;-57
2021/07/08 16:59:02;;;;;;;;;;;;;;;;;;5049497;28;19924;-53
2021/07/08 17:01:30;;;;;;;;;;;;;;;;;;5049507;28;19927;-55
2021/07/08 17:03:56;;;;;;;;;;;;;;;;;;5049847;28;20099;-56
2021/07/08 17:06:26;;;;;;;;;;;;;;;;;;5048964;28;19905;-55
2021/07/08 17:08:54;;;;;;;;;;;;;;;;;;5049144;28;19912;-55
2021/07/08 17:11:20;;;;;;;;;;;;;;;;;;5049135;28;20314;-56
2021/07/08 17:13:49;;;;;;;;;;;;;;;;;;5049621;28;19904;-57
2021/07/08 17:16:15;;;;;;;;;;;;;;;;;;5048914;28;19911;-58
2021/07/08 17:18:41;;;;;;;;;;;;;;;;;;5048801;28;19975;-59
2021/07/08 17:21:07;;;;;;;;;;;;;;;;;;5049108;28;20313;-59
2021/07/08 17:23:37;;;;;;;;;;;;;;;;;;5049292;28;19970;-60
2021/07/08 17:26:05;;;;;;;;;;;;;;;;;;5048472;28;19967;-58
2021/07/08 17:28:31;;;;;;;;;;;;;;;;;;5047518;28;20248;-57
2021/07/08 17:30:57;;;;;;;;;;;;;;;;;;5047287;28;19919;-59
2021/07/08 17:33:23;;;;;;;;;;;;;;;;;;5049367;28;20444;-59
2021/07/08 17:35:49;;;;;;;;;;;;;;;;;;5039155;28;20261;-58
2021/07/08 17:38:15;;;;;;;;;;;;;;;;;;5049083;28;19959;-54
2021/07/08 17:40:41;;;;;;;;;;;;;;;;;;5049312;28;19905;-57
2021/07/08 17:43:10;;;;;;;;;;;;;;;;;;5047428;28;20011;-57
2021/07/08 17:45:36;;;;;;;;;;;;;;;;;;5048487;28;19987;-59
2021/07/08 17:48:02;;;;;;;;;;;;;;;;;;5041249;28;19999;-56
2021/07/08 17:50:28;;;;;;;;;;;;;;;;;;5048793;28;19931;-54
2021/07/08 17:52:54;;;;;;;;;;;;;;;;;;5052875;28;20003;-56
2021/07/08 17:55:22;;;;;;;;;;;;;;;;;;5051994;28;19918;-59
2021/07/08 17:57:48;;;;;;;;;;;;;;;;;;5052946;28;19915;-51
2021/07/08 18:00:14;;;;;;;;;;;;;;;;;;5052284;28;19920;-52
2021/07/08 18:02:40;;;;;;;;;;;;;;;;;;5052502;28;19912;-51
2021/07/08 18:05:06;;;;;;;;;;;;;;;;;;5053816;28;19954;-55
2021/07/08 18:07:32;;;;;;;;;;;;;;;;;;5052012;28;20050;-55
2021/07/08 18:09:58;;;;;;;;;;;;;;;;;;5053225;28;19992;-53
2021/07/08 18:12:24;;;;;;;;;;;;;;;;;;5052355;28;20364;-51
2021/07/08 18:14:52;;;;;;;;;;;;;;;;;;5052356;28;19905;-54
2021/07/08 18:17:18;;;;;;;;;;;;;;;;;;5052338;28;20000;-59
2021/07/08 18:19:44;;;;;;;;;;;;;;;;;;5050681;28;19970;-59
2021/07/08 18:22:10;;;;;;;;;;;;;;;;;;5051493;28;19991;-58
2021/07/08 18:24:37;;;;;;;;;;;;;;;;;;5052365;28;20260;-60
2021/07/08 18:27:04;;;;;;;;;;;;;;;;;;5041065;28;20325;-58
2021/07/08 18:29:30;;;;;;;;;;;;;;;;;;5066432;28;19904;-58
2021/07/08 18:31:56;;;;;;;;;;;;;;;;;;5069833;28;20252;-58
2021/07/08 18:34:21;;;;;;;;;;;;;;;;;;5052836;28;19934;-58
2021/07/08 18:36:47;;;;;;;;;;;;;;;;;;5072192;28;19944;-59
2021/07/08 18:39:13;;;;;;;;;;;;;;;;;;5070819;28;19920;-59
2021/07/08 18:41:39;;;;;;;;;;;;;;;;;;5060247;28;20004;-59
2021/07/08 18:44:05;;;;;;;;;;;;;;;;;;5070946;28;19969;-57
2021/07/08 18:46:31;;;;;;;;;;;;;;;;;;5072577;28;19920;-58
2021/07/08 18:48:58;;;;;;;;;;;;;;;;;;5072085;28;20028;-57
2021/07/08 18:51:25;;;;;;;;;;;;;;;;;;5071578;28;19912;-60
2021/07/08 18:53:51;;;;;;;;;;;;;;;;;;5071901;28;19908;-58
2021/07/08 18:56:16;;;;;;;;;;;;;;;;;;5071914;28;20008;-58
2021/07/08 18:58:42;;;;;;;;;;;;;;;;;;5071426;28;19914;-58
2021/07/08 19:01:08;;;;;;;;;;;;;;;;;;5069265;28;19915;-58
2021/07/08 19:03:35;;;;;;;;;;;;;;;;;;5052328;28;19954;-60
2021/07/08 19:06:01;;;;;;;;;;;;;;;;;;5071274;28;19904;-58
2021/07/08 19:08:27;;;;;;;;;;;;;;;;;;5070494;28;19967;-58
2021/07/08 19:10:53;;;;;;;;;;;;;;;;;;5071141;28;20394;-57
2021/07/08 19:13:19;;;;;;;;;;;;;;;;;;5071640;28;19990;-59
2021/07/08 19:15:45;;;;;;;;;;;;;;;;;;5071267;28;20310;-58
2021/07/08 19:18:11;;;;;;;;;;;;;;;;;;5071395;28;19964;-58
2021/07/08 19:20:37;;;;;;;;;;;;;;;;;;5069429;28;19972;-60
2021/07/08 19:23:05;;;;;;;;;;;;;;;;;;5058457;28;19904;-60
2021/07/08 19:25:31;;;;;;;;;;;;;;;;;;5071302;28;19956;-59
2021/07/08 19:27:57;;;;;;;;;;;;;;;;;;5062244;28;20364;-59
2021/07/08 19:30:23;;;;;;;;;;;;;;;;;;5045656;28;19998;-59
2021/07/08 19:32:52;;;;;;;;;;;;;;;;;;5063701;28;19931;-55
2021/07/08 19:35:21;;;;;;;;;;;;;;;;;;5046435;28;19905;-57
2021/07/08 19:37:48;;;;;;;;;;;;;;;;;;5049483;28;19995;-55
2021/07/08 19:40:14;;;;;;;;;;;;;;;;;;5050567;28;19927;-55
2021/07/08 19:42:40;;;;;;;;;;;;;;;;;;5048729;28;19905;-59
2021/07/08 19:45:06;;;;;;;;;;;;;;;;;;5050989;28;20273;-59
2021/07/08 19:47:32;;;;;;;;;;;;;;;;;;5050783;28;19956;-59
2021/07/08 19:49:59;;;;;;;;;;;;;;;;;;5049147;28;20327;-60
2021/07/08 19:52:25;;;;;;;;;;;;;;;;;;5050699;28;19996;-60
2021/07/08 19:54:51;;;;;;;;;;;;;;;;;;5049789;28;19944;-60
2021/07/08 19:57:17;;;;;;;;;;;;;;;;;;5048208;28;19923;-59
2021/07/08 19:59:43;;;;;;;;;;;;;;;;;;5049892;28;19905;-59
2021/07/08 20:02:09;;;;;;;;;;;;;;;;;;5049135;28;19976;-59
2021/07/08 20:04:35;;;;;;;;;;;;;;;;;;5049812;28;19992;-59
2021/07/08 20:07:01;;;;;;;;;;;;;;;;;;5050335;28;19917;-59
2021/07/08 20:09:27;;;;;;;;;;;;;;;;;;5050080;28;19913;-59
2021/07/08 20:11:53;;;;;;;;;;;;;;;;;;5050404;28;20280;-58
2021/07/08 20:14:19;;;;;;;;;;;;;;;;;;5050006;28;19908;-58
2021/07/08 20:16:44;;;;;;;;;;;;;;;;;;5049965;28;20359;-58
2021/07/08 20:19:10;;;;;;;;;;;;;;;;;;5049119;28;20062;-59
2021/07/08 20:21:38;;;;;;;;;;;;;;;;;;5048041;28;19928;-60
2021/07/08 20:24:04;;;;;;;;;;;;;;;;;;5049536;28;19905;-59
2021/07/08 20:26:30;;;;;;;;;;;;;;;;;;5049658;28;20067;-59
2021/07/08 20:28:56;;;;;;;;;;;;;;;;;;5049136;28;20022;-60
2021/07/08 20:31:22;;;;;;;;;;;;;;;;;;5049091;28;20229;-59
2021/07/08 20:33:48;;;;;;;;;;;;;;;;;;5049780;28;20348;-59
2021/07/08 20:36:15;;;;;;;;;;;;;;;;;;5024587;28;20046;-58
2021/07/08 20:38:41;;;;;;;;;;;;;;;;;;5048452;28;19909;-58
2021/07/08 20:41:07;;;;;;;;;;;;;;;;;;5049631;28;19912;-58
2021/07/08 20:43:33;;;;;;;;;;;;;;;;;;5049761;28;19905;-59
2021/07/08 20:46:01;;;;;;;;;;;;;;;;;;5049818;28;20360;-59
2021/07/08 20:48:27;;;;;;;;;;;;;;;;;;5049173;28;19928;-60
2021/07/08 20:50:53;;;;;;;;;;;;;;;;;;5049116;28;19916;-59
2021/07/08 20:53:19;;;;;;;;;;;;;;;;;;5048865;28;19944;-58
2021/07/08 20:55:45;;;;;;;;;;;;;;;;;;5049028;28;19953;-57
2021/07/08 20:58:11;;;;;;;;;;;;;;;;;;5031143;28;19905;-58
2021/07/08 21:00:38;;;;;;;;;;;;;;;;;;5030190;28;19931;-60
2021/07/08 21:03:07;;;;;;;;;;;;;;;;;;5048010;28;20017;-59
2021/07/08 21:05:33;;;;;;;;;;;;;;;;;;5048596;28;19904;-57
2021/07/08 21:08:01;;;;;;;;;;;;;;;;;;5048720;28;19920;-59
2021/07/08 21:10:30;;;;;;;;;;;;;;;;;;5048806;28;19970;-59
2021/07/08 21:12:58;;;;;;;;;;;;;;;;;;5049135;28;19905;-58
2021/07/08 21:15:25;;;;;;;;;;;;;;;;;;5049184;28;19917;-60
2021/07/08 21:17:51;;;;;;;;;;;;;;;;;;5047563;28;20397;-59
2021/07/08 21:20:17;;;;;;;;;;;;;;;;;;5048861;28;19913;-59
2021/07/08 21:22:47;;;;;;;;;;;;;;;;;;5030476;28;19987;-59
2021/07/08 21:25:13;;;;;;;;;;;;;;;;;;5047210;28;19905;-60
2021/07/08 21:27:39;;;;;;;;;;;;;;;;;;5055961;28;19923;-60
2021/07/08 21:30:05;;;;;;;;;;;;;;;;;;5048896;28;19991;-60
2021/07/08 21:32:31;;;;;;;;;;;;;;;;;;5049224;28;20317;-60
2021/07/08 21:34:57;;;;;;;;;;;;;;;;;;5047008;28;19909;-61
2021/07/08 21:37:23;;;;;;;;;;;;;;;;;;5048976;28;19924;-60
2021/07/08 21:39:49;;;;;;;;;;;;;;;;;;5050198;28;20325;-60
2021/07/08 21:42:14;;;;;;;;;;;;;;;;;;5049417;28;20071;-59
2021/07/08 21:44:40;;;;;;;;;;;;;;;;;;5049063;28;19905;-59
2021/07/08 21:47:06;;;;;;;;;;;;;;;;;;5048785;28;19908;-59
